Time;durP1;ratioP1;P1;durP2;ratioP2;P2;SDS_P1;SDS_P2;PMS_P1;PMS_P2;Temp;Humidity;BMP_temperature;BMP_pressure;BME280_temperature;BME280_humidity;BME280_pressure;Samples;Min_cycle;Max_cycle;Signal;HPM_P1;HPM_P2
2021/01/05 00:00:24;;;;;;;0.85;0.85;;;18.20;45.30;;;;;;5059343;28;20048;-48
2021/01/05 00:02:52;;;;;;;1.83;1.00;;;18.10;45.20;;;;;;5054745;28;20124;-47
2021/01/05 00:05:19;;;;;;;1.45;1.45;;;18.20;45.30;;;;;;5053755;28;20044;-53
2021/01/05 00:07:46;;;;;;;1.05;0.95;;;18.10;45.20;;;;;;5065121;28;20040;-50
2021/01/05 00:10:13;;;;;;;0.95;0.95;;;18.20;45.30;;;;;;5057742;28;20500;-46
2021/01/05 00:12:39;;;;;;;1.50;1.20;;;18.10;45.20;;;;;;5055745;28;20091;-47
2021/01/05 00:15:08;;;;;;;1.25;1.13;;;18.20;45.30;;;;;;5056015;28;20049;-45
2021/01/05 00:17:35;;;;;;;1.42;1.10;;;18.10;45.20;;;;;;5055559;28;20414;-48
2021/01/05 00:20:08;;;;;;;1.63;1.48;;;18.10;45.20;;;;;;5055684;28;20041;-46
2021/01/05 00:22:35;;;;;;;0.80;0.80;;;18.10;45.20;;;;;;5049999;28;20060;-48
2021/01/05 00:25:03;;;;;;;1.13;0.80;;;18.20;45.30;;;;;;5056462;28;20057;-46
2021/01/05 00:27:30;;;;;;;1.95;1.63;;;18.10;45.20;;;;;;5058100;28;20041;-54
2021/01/05 00:29:57;;;;;;;1.20;1.10;;;18.10;45.10;;;;;;5060383;28;20432;-47
2021/01/05 00:32:24;;;;;;;1.25;0.98;;;18.20;45.20;;;;;;5063809;28;20400;-49
2021/01/05 00:34:52;;;;;;;1.65;1.30;;;18.10;45.20;;;;;;5051299;28;20049;-48
2021/01/05 00:37:20;;;;;;;2.35;1.30;;;18.10;45.20;;;;;;5052608;28;20355;-48
2021/01/05 00:39:49;;;;;;;2.67;1.58;;;18.10;45.10;;;;;;5056584;28;20036;-47
2021/01/05 00:42:16;;;;;;;1.08;1.08;;;18.10;45.20;;;;;;5055243;28;20057;-47
2021/01/05 00:44:42;;;;;;;1.48;1.38;;;18.10;45.20;;;;;;5056537;28;20033;-47
2021/01/05 00:47:09;;;;;;;1.30;1.10;;;18.10;45.70;;;;;;5053085;28;20052;-47
2021/01/05 00:49:36;;;;;;;1.80;1.50;;;18.10;45.10;;;;;;5050259;28;20060;-47
2021/01/05 00:52:03;;;;;;;1.58;1.38;;;18.10;45.10;;;;;;5056291;28;20080;-46
2021/01/05 00:54:31;;;;;;;1.63;1.42;;;18.10;45.10;;;;;;5065217;28;20074;-46
2021/01/05 00:56:59;;;;;;;1.17;1.17;;;18.10;45.20;;;;;;5066532;28;20389;-49
2021/01/05 00:59:26;;;;;;;1.77;1.35;;;18.10;45.10;;;;;;5066468;28;20044;-46
2021/01/05 01:01:54;;;;;;;1.95;1.85;;;18.10;45.10;;;;;;5050649;28;20053;-45
2021/01/05 01:04:35;;;;;;;2.80;2.00;;;18.10;45.10;;;;;;5054820;28;20049;-46
2021/01/05 01:07:04;;;;;;;2.05;1.95;;;18.10;45.10;;;;;;5053826;28;20402;-46
2021/01/05 01:09:33;;;;;;;1.40;1.30;;;18.10;45.10;;;;;;5060936;28;20538;-45
2021/01/05 01:12:05;;;;;;;1.70;1.60;;;18.10;45.10;;;;;;5048419;28;20048;-47
2021/01/05 01:14:36;;;;;;;1.92;1.83;;;18.10;45.20;;;;;;5055163;28;20072;-50
2021/01/05 01:17:05;;;;;;;1.88;1.58;;;18.10;45.10;;;;;;5053241;28;20048;-47
2021/01/05 01:19:32;;;;;;;1.45;1.35;;;18.10;45.10;;;;;;5064171;28;20137;-48
2021/01/05 01:21:58;;;;;;;1.60;1.50;;;18.10;45.10;;;;;;5057980;28;20115;-47
2021/01/05 01:24:25;;;;;;;1.50;1.40;;;18.10;45.10;;;;;;5063650;28;20044;-49
2021/01/05 01:26:54;;;;;;;1.83;1.77;;;18.10;45.10;;;;;;5063271;28;20142;-49
2021/01/05 01:29:22;;;;;;;1.90;1.70;;;18.10;45.00;;;;;;5053338;28;20048;-49
2021/01/05 01:31:50;;;;;;;1.38;1.27;;;18.10;45.00;;;;;;5063902;28;20040;-49
2021/01/05 01:34:19;;;;;;;1.85;1.30;;;18.10;45.00;;;;;;5064393;28;20128;-53
2021/01/05 01:36:55;;;;;;;2.35;2.13;;;18.10;45.60;;;;;;5066644;28;20057;-47
2021/01/05 01:39:22;;;;;;;1.48;1.23;;;18.10;45.00;;;;;;5055177;28;20049;-50
2021/01/05 01:41:48;;;;;;;1.65;1.55;;;18.10;45.00;;;;;;5058591;28;20074;-46
2021/01/05 01:44:20;;;;;;;1.48;1.38;;;18.10;45.50;;;;;;5064464;28;20500;-46
2021/01/05 01:46:48;;;;;;;1.60;1.50;;;18.10;45.00;;;;;;5063378;28;20056;-47
2021/01/05 01:49:15;;;;;;;2.40;2.22;;;18.10;45.00;;;;;;5053897;28;20092;-45
2021/01/05 01:51:43;;;;;;;1.42;1.33;;;18.10;45.00;;;;;;5034994;28;20073;-46
2021/01/05 01:54:50;;;;;;;1.42;1.40;;;18.10;45.00;;;;;;5055658;28;20040;-47
2021/01/05 01:57:45;;;;;;;1.90;1.23;;;18.10;45.00;;;;;;5067857;28;20066;-45
2021/01/05 02:00:22;;;;;;;1.75;1.65;;;18.10;45.10;;;;;;5054799;28;20052;-50
2021/01/05 02:03:19;;;;;;;1.70;1.42;;;18.10;45.10;;;;;;5040443;28;20059;-49
2021/01/05 02:06:18;;;;;;;1.60;1.50;;;18.10;45.00;;;;;;5058232;28;20045;-50
2021/01/05 02:09:28;;;;;;;1.65;1.55;;;18.10;45.10;;;;;;5111961;27;20391;-49
2021/01/05 02:12:07;;;;;;;1.50;1.42;;;18.00;45.10;;;;;;5099820;28;20040;-51
2021/01/05 02:14:53;;;;;;;1.77;1.67;;;18.00;45.10;;;;;;5104100;28;20151;-51
2021/01/05 02:17:50;;;;;;;2.25;1.80;;;18.10;45.10;;;;;;5098262;28;20043;-49
2021/01/05 02:20:23;;;;;;;1.30;1.20;;;18.10;45.10;;;;;;5120897;28;20047;-50
2021/01/05 02:22:57;;;;;;;1.73;1.63;;;18.00;45.10;;;;;;5102492;28;20052;-50
2021/01/05 02:25:44;;;;;;;1.40;1.30;;;18.00;45.10;;;;;;5103856;28;20051;-49
2021/01/05 02:28:12;;;;;;;;;;;18.10;45.10;;;;;;5107168;28;20631;-53
2021/01/05 02:30:42;;;;;;;2.15;1.65;;;18.00;45.20;;;;;;5103646;28;20016;-49
2021/01/05 02:33:28;;;;;;;2.17;2.03;;;18.00;45.20;;;;;;5103194;28;20507;-49
2021/01/05 02:36:20;;;;;;;2.10;1.98;;;18.00;45.20;;;;;;5103223;28;20084;-48
2021/01/05 02:39:42;;;;;;;2.25;2.05;;;18.00;45.20;;;;;;5103443;28;20138;-48
2021/01/05 02:43:02;;;;;;;2.13;1.92;;;18.00;45.10;;;;;;5019993;28;20046;-52
2021/01/05 02:46:06;;;;;;;1.38;1.27;;;18.00;45.20;;;;;;5022947;28;20046;-47
2021/01/05 02:49:02;;;;;;;2.35;2.03;;;18.00;45.20;;;;;;5022516;28;20057;-53
2021/01/05 02:52:13;;;;;;;1.95;1.60;;;17.90;45.20;;;;;;5022477;28;20059;-47
2021/01/05 02:55:46;;;;;;;2.08;1.98;;;18.00;45.20;;;;;;5023216;28;20148;-47
2021/01/05 02:59:19;;;;;;;2.17;2.08;;;18.00;45.20;;;;;;4886831;29;20568;-49
2021/01/05 03:02:35;;;;;;;1.75;1.65;;;18.00;45.30;;;;;;4886375;29;20045;-53
2021/01/05 03:05:20;;;;;;;2.22;2.13;;;17.90;45.20;;;;;;4884708;29;20228;-49
2021/01/05 03:08:05;;;;;;;2.10;1.90;;;17.90;45.30;;;;;;4880543;29;20057;-46
2021/01/05 03:10:57;;;;;;;2.25;2.10;;;17.90;45.20;;;;;;4883372;29;20056;-52
2021/01/05 03:13:51;;;;;;;2.42;2.13;;;17.90;45.20;;;;;;4886849;29;20218;-51
2021/01/05 03:16:45;;;;;;;3.33;3.13;;;18.00;45.20;;;;;;4887529;29;20476;-51
2021/01/05 03:19:39;;;;;;;2.72;2.47;;;18.00;45.20;;;;;;4958964;28;20079;-51
2021/01/05 03:22:28;;;;;;;2.70;2.50;;;17.90;45.10;;;;;;4947352;29;20130;-50
2021/01/05 03:25:15;;;;;;;2.10;1.88;;;17.90;45.10;;;;;;4953720;28;20055;-47
2021/01/05 03:28:01;;;;;;;;;;;18.00;45.20;;;;;;4956915;28;20443;-51
2021/01/05 03:30:49;;;;;;;3.00;2.17;;;17.90;45.20;;;;;;4950179;28;19922;-46
2021/01/05 03:33:35;;;;;;;2.10;2.00;;;17.90;45.20;;;;;;4994269;28;20532;-50
2021/01/05 03:36:20;;;;;;;2.75;2.55;;;17.90;45.30;;;;;;5089917;28;20051;-52
2021/01/05 03:39:06;;;;;;;3.70;2.30;;;17.90;45.20;;;;;;5089962;28;20101;-51
2021/01/05 03:41:56;;;;;;;3.28;3.08;;;17.90;45.20;;;;;;5060026;28;20099;-47
2021/01/05 03:44:41;;;;;;;3.30;2.60;;;17.90;45.20;;;;;;5064186;28;20049;-46
2021/01/05 03:47:26;;;;;;;2.60;2.35;;;18.00;45.20;;;;;;5056410;28;20052;-47
2021/01/05 03:50:13;;;;;;;2.45;2.30;;;18.00;45.10;;;;;;5067402;28;20040;-47
2021/01/05 03:52:58;;;;;;;3.08;2.88;;;18.00;45.10;;;;;;5067174;28;20051;-48
2021/01/05 03:55:43;;;;;;;3.30;2.13;;;18.00;45.20;;;;;;5062042;28;20048;-47
2021/01/05 03:58:28;;;;;;;3.53;2.55;;;17.90;45.10;;;;;;5065036;28;20080;-46
2021/01/05 04:01:13;;;;;;;3.15;2.85;;;17.90;45.10;;;;;;5065411;28;20041;-46
2021/01/05 04:03:40;;;;;;;3.08;2.25;;;17.90;45.10;;;;;;5058883;28;20048;-54
2021/01/05 04:06:08;;;;;;;3.75;2.70;;;18.00;45.10;;;;;;5062253;28;20048;-53
2021/01/05 04:08:35;;;;;;;2.88;2.67;;;18.00;45.10;;;;;;5063756;28;20059;-49
2021/01/05 04:11:02;;;;;;;3.22;2.00;;;18.00;45.10;;;;;;5066535;28;20725;-50
2021/01/05 04:13:29;;;;;;;2.88;2.67;;;18.00;45.60;;;;;;5062050;28;20103;-48
2021/01/05 04:15:55;;;;;;;3.13;2.30;;;18.00;45.00;;;;;;5063157;28;20135;-49
2021/01/05 04:18:22;;;;;;;2.25;2.10;;;18.00;45.00;;;;;;5068875;28;20044;-55
2021/01/05 04:20:48;;;;;;;3.10;2.28;;;18.00;45.00;;;;;;5089789;28;20125;-49
2021/01/05 04:23:16;;;;;;;3.03;2.83;;;18.00;45.50;;;;;;5089336;28;20167;-47
2021/01/05 04:25:43;;;;;;;2.97;2.67;;;18.00;44.90;;;;;;5089451;28;20063;-51
2021/01/05 04:28:09;;;;;;;3.42;3.13;;;18.00;44.90;;;;;;5090728;28;20138;-51
2021/01/05 04:30:37;;;;;;;3.25;2.92;;;18.00;44.90;;;;;;5087704;28;20443;-52
2021/01/05 04:33:08;;;;;;;2.80;2.58;;;18.00;44.90;;;;;;5088683;28;20083;-50
2021/01/05 04:35:36;;;;;;;3.20;2.90;;;18.00;44.90;;;;;;5088716;28;20048;-54
2021/01/05 04:38:03;;;;;;;3.03;2.83;;;18.00;44.90;;;;;;5088998;28;20067;-47
2021/01/05 04:40:35;;;;;;;2.92;2.60;;;18.00;44.90;;;;;;5089389;28;20063;-46
2021/01/05 04:43:19;;;;;;;3.05;2.63;;;18.00;44.80;;;;;;5088628;28;20507;-51
2021/01/05 04:46:04;;;;;;;3.33;3.03;;;18.00;44.80;;;;;;5089342;28;20056;-53
2021/01/05 04:48:43;;;;;;;2.00;1.90;;;18.00;44.80;;;;;;5088275;28;20556;-51
2021/01/05 04:51:21;;;;;;;3.95;2.30;;;18.00;44.90;;;;;;5088598;28;20056;-47
2021/01/05 04:53:52;;;;;;;2.58;2.40;;;18.00;44.90;;;;;;5082988;28;20080;-48
2021/01/05 04:56:26;;;;;;;3.50;2.53;;;18.00;44.90;;;;;;5088953;28;20480;-51
2021/01/05 04:58:58;;;;;;;2.88;2.67;;;18.00;44.90;;;;;;5084489;28;20507;-49
2021/01/05 05:01:31;;;;;;;2.92;2.65;;;18.00;44.90;;;;;;5088122;28;20040;-51
2021/01/05 05:04:12;;;;;;;2.55;2.35;;;18.00;44.90;;;;;;5087943;28;20052;-50
2021/01/05 05:06:45;;;;;;;2.55;2.35;;;18.00;45.00;;;;;;5088160;28;20079;-46
2021/01/05 05:09:33;;;;;;;4.10;2.47;;;18.00;44.90;;;;;;5084372;28;20533;-48
2021/01/05 05:12:21;;;;;;;3.17;2.92;;;18.00;45.00;;;;;;5084153;28;20811;-48
2021/01/05 05:14:57;;;;;;;2.65;2.45;;;18.00;45.00;;;;;;5088172;28;20052;-47
2021/01/05 05:18:01;;;;;;;2.55;2.42;;;18.00;45.00;;;;;;5081659;28;20044;-51
2021/01/05 05:21:01;;;;;;;2.55;2.28;;;18.00;44.90;;;;;;5045182;28;20052;-49
2021/01/05 05:23:38;;;;;;;3.97;2.75;;;18.00;45.00;;;;;;5041682;28;20045;-49
2021/01/05 05:26:10;;;;;;;2.60;2.05;;;18.00;45.00;;;;;;5045251;28;20128;-46
2021/01/05 05:28:44;;;;;;;1.73;1.50;;;18.00;45.00;;;;;;5044354;28;20175;-47
2021/01/05 05:31:12;;;;;;;3.17;2.70;;;18.00;45.00;;;;;;5030271;28;20045;-52
2021/01/05 05:33:41;;;;;;;3.42;2.60;;;18.00;45.00;;;;;;5044954;28;20119;-51
2021/01/05 05:36:19;;;;;;;2.90;2.70;;;18.00;45.00;;;;;;5044699;28;20415;-48
2021/01/05 05:39:08;;;;;;;2.33;2.15;;;18.00;45.00;;;;;;5039149;28;20061;-49
2021/01/05 05:41:41;;;;;;;2.28;2.08;;;18.00;44.90;;;;;;5044211;28;20580;-51
2021/01/05 05:44:24;;;;;;;3.22;2.92;;;18.00;45.00;;;;;;5045150;28;20068;-48
2021/01/05 05:46:58;;;;;;;4.10;2.50;;;18.00;44.90;;;;;;5038335;28;20115;-49
2021/01/05 05:49:40;;;;;;;2.35;2.25;;;18.00;45.00;;;;;;5042276;28;20044;-50
2021/01/05 05:52:27;;;;;;;3.33;2.55;;;18.00;44.90;;;;;;5045595;28;20049;-51
2021/01/05 05:54:55;;;;;;;2.70;2.50;;;18.00;44.90;;;;;;5047181;28;20382;-47
2021/01/05 05:57:34;;;;;;;3.38;2.60;;;18.00;45.00;;;;;;5087343;28;20097;-51
2021/01/05 06:00:11;;;;;;;2.83;2.25;;;18.00;45.00;;;;;;5081874;28;20048;-55
2021/01/05 06:02:39;;;;;;;2.45;2.22;;;18.00;45.00;;;;;;5087059;28;20242;-48
2021/01/05 06:05:20;;;;;;;3.38;3.05;;;18.00;45.00;;;;;;5087155;28;20127;-49
2021/01/05 06:07:47;;;;;;;2.08;1.88;;;18.00;44.90;;;;;;5084855;28;20052;-49
2021/01/05 06:10:13;;;;;;;3.05;2.65;;;18.00;45.00;;;;;;5089068;28;20101;-48
2021/01/05 06:12:40;;;;;;;3.05;2.75;;;18.00;45.00;;;;;;5086830;28;20490;-47
2021/01/05 06:15:09;;;;;;;2.60;2.40;;;18.00;45.00;;;;;;5086043;28;20050;-46
2021/01/05 06:17:35;;;;;;;2.42;2.15;;;18.00;44.90;;;;;;5085268;28;20051;-45
2021/01/05 06:20:03;;;;;;;2.47;2.28;;;18.00;45.00;;;;;;5086445;28;20163;-50
2021/01/05 06:22:29;;;;;;;2.38;2.28;;;18.00;45.00;;;;;;5087292;28;20056;-48
2021/01/05 06:24:56;;;;;;;2.42;2.10;;;18.00;44.90;;;;;;5088369;28;20397;-46
2021/01/05 06:27:22;;;;;;;3.45;3.00;;;18.00;44.90;;;;;;5087174;28;20044;-48
2021/01/05 06:29:49;;;;;;;2.25;1.70;;;18.00;44.90;;;;;;5087155;28;20127;-46
2021/01/05 06:32:17;;;;;;;2.55;1.95;;;18.00;44.90;;;;;;5085141;28;20097;-49
2021/01/05 06:34:43;;;;;;;4.07;1.98;;;18.00;44.80;;;;;;5087647;28;20068;-46
2021/01/05 06:37:10;;;;;;;3.17;2.88;;;18.00;44.80;;;;;;5088619;28;20051;-47
2021/01/05 06:39:37;;;;;;;2.55;2.28;;;18.00;44.90;;;;;;5086853;28;20125;-48
2021/01/05 06:42:04;;;;;;;2.38;1.92;;;18.00;44.80;;;;;;5087437;28;20082;-46
2021/01/05 06:44:30;;;;;;;2.65;2.45;;;18.00;44.80;;;;;;5086010;28;20131;-50
2021/01/05 06:46:57;;;;;;;2.58;2.38;;;18.00;44.80;;;;;;5087156;28;20052;-48
2021/01/05 06:49:26;;;;;;;4.90;2.45;;;18.00;44.80;;;;;;5087854;28;20044;-51
2021/01/05 06:51:53;;;;;;;3.22;2.47;;;18.00;44.70;;;;;;5087640;28;20048;-49
2021/01/05 06:54:20;;;;;;;2.33;1.95;;;18.00;44.80;;;;;;5088238;28;20047;-47
2021/01/05 06:56:48;;;;;;;2.97;2.10;;;18.00;44.80;;;;;;5090975;28;20048;-52
2021/01/05 06:59:15;;;;;;;2.85;2.70;;;18.00;44.80;;;;;;5088623;28;20043;-49
2021/01/05 07:01:42;;;;;;;2.88;2.08;;;18.00;44.80;;;;;;5089690;28;20048;-48
2021/01/05 07:04:08;;;;;;;3.15;2.40;;;18.00;44.80;;;;;;5091364;28;20048;-47
2021/01/05 07:06:36;;;;;;;2.80;2.55;;;18.00;44.80;;;;;;5090283;28;20040;-46
2021/01/05 07:09:03;;;;;;;5.53;2.60;;;18.00;44.80;;;;;;5090345;28;20087;-46
2021/01/05 07:11:29;;;;;;;2.60;2.38;;;18.00;44.70;;;;;;5090507;28;20111;-52
2021/01/05 07:13:56;;;;;;;3.35;2.70;;;18.00;44.70;;;;;;5091053;28;20040;-46
2021/01/05 07:16:22;;;;;;;3.03;2.28;;;18.00;44.60;;;;;;5090818;28;20051;-49
2021/01/05 07:18:49;;;;;;;2.40;2.03;;;18.00;44.60;;;;;;5091250;28;20130;-46
2021/01/05 07:21:15;;;;;;;2.55;2.22;;;18.00;44.60;;;;;;5090320;28;20052;-49
2021/01/05 07:23:43;;;;;;;3.28;3.00;;;18.00;44.50;;;;;;5089999;28;20123;-54
2021/01/05 07:26:09;;;;;;;2.55;2.35;;;18.00;44.50;;;;;;5089964;28;20048;-50
2021/01/05 07:28:39;;;;;;;5.53;2.97;;;18.00;44.50;;;;;;5090616;28;20043;-48
2021/01/05 07:31:06;;;;;;;3.20;2.17;;;18.00;44.50;;;;;;5091792;28;20135;-48
2021/01/05 07:33:33;;;;;;;3.97;3.33;;;18.00;44.50;;;;;;5090004;28;20400;-50
2021/01/05 07:36:01;;;;;;;5.65;2.90;;;18.00;44.50;;;;;;5090425;28;20052;-49
2021/01/05 07:38:27;;;;;;;3.17;2.88;;;18.00;44.40;;;;;;5087957;28;20074;-50
2021/01/05 07:40:55;;;;;;;4.68;3.00;;;18.00;44.40;;;;;;5085851;28;20504;-46
2021/01/05 07:43:22;;;;;;;2.95;2.38;;;18.00;44.50;;;;;;5090674;28;20091;-47
2021/01/05 07:45:48;;;;;;;3.78;3.42;;;18.00;44.40;;;;;;5091108;28;20055;-46
2021/01/05 07:48:15;;;;;;;3.22;2.92;;;18.00;44.50;;;;;;5089739;28;20044;-51
2021/01/05 07:50:42;;;;;;;6.35;2.55;;;18.00;44.40;;;;;;5089685;28;20036;-48
2021/01/05 07:53:08;;;;;;;3.60;3.05;;;18.00;44.40;;;;;;5089797;28;20146;-50
2021/01/05 07:55:35;;;;;;;3.72;3.28;;;18.00;44.40;;;;;;5090265;28;20075;-49
2021/01/05 07:58:02;;;;;;;2.67;2.47;;;18.00;44.40;;;;;;5091347;28;20074;-53
2021/01/05 08:00:30;;;;;;;3.00;2.63;;;18.00;44.40;;;;;;5089768;28;20040;-47
2021/01/05 08:02:57;;;;;;;4.22;2.55;;;18.00;44.40;;;;;;5089799;28;20075;-48
2021/01/05 08:05:26;;;;;;;3.53;2.45;;;18.00;44.40;;;;;;5089304;28;20098;-47
2021/01/05 08:07:53;;;;;;;3.30;2.50;;;18.00;44.40;;;;;;5088987;28;20084;-51
2021/01/05 08:10:24;;;;;;;2.63;2.40;;;18.00;44.50;;;;;;5090276;28;20051;-51
2021/01/05 08:12:51;;;;;;;3.22;2.53;;;18.00;44.40;;;;;;5089985;28;20040;-47
2021/01/05 08:15:21;;;;;;;3.33;2.60;;;18.00;44.50;;;;;;5089204;28;20512;-52
2021/01/05 08:17:48;;;;;;;2.90;2.47;;;18.00;44.80;;;;;;5089170;28;20048;-47
2021/01/05 08:20:17;;;;;;;3.38;2.55;;;18.00;44.60;;;;;;5089594;28;20040;-49
2021/01/05 08:22:45;;;;;;;2.80;2.63;;;18.00;44.60;;;;;;5089367;28;20036;-47
2021/01/05 08:25:12;;;;;;;3.30;3.00;;;18.00;44.60;;;;;;5090738;28;20481;-48
2021/01/05 08:27:40;;;;;;;4.00;3.50;;;18.00;44.50;;;;;;5089151;28;20412;-47
2021/01/05 08:30:07;;;;;;;5.13;3.30;;;18.00;44.50;;;;;;5089350;28;20111;-48
2021/01/05 08:32:35;;;;;;;2.53;2.42;;;18.00;44.50;;;;;;5088656;28;20191;-51
2021/01/05 08:35:01;;;;;;;3.70;3.10;;;18.00;44.50;;;;;;5088925;28;20032;-52
2021/01/05 08:37:28;;;;;;;5.18;3.25;;;18.00;44.50;;;;;;5089276;28;20047;-49
2021/01/05 08:39:54;;;;;;;3.17;2.92;;;17.90;44.40;;;;;;5090131;28;20083;-49
2021/01/05 08:42:21;;;;;;;4.38;3.53;;;17.90;44.40;;;;;;5088891;28;20056;-48
2021/01/05 08:44:47;;;;;;;3.28;3.08;;;18.00;44.50;;;;;;5088810;28;20044;-46
2021/01/05 08:47:14;;;;;;;7.35;3.65;;;17.90;44.40;;;;;;5086553;28;20062;-46
2021/01/05 08:49:41;;;;;;;2.95;2.33;;;18.00;44.50;;;;;;5088698;28;20044;-48
2021/01/05 08:52:08;;;;;;;3.63;2.75;;;17.90;44.50;;;;;;5090368;28;20044;-48
2021/01/05 08:54:34;;;;;;;3.70;2.38;;;18.00;44.60;;;;;;5088539;28;20121;-52
2021/01/05 08:57:01;;;;;;;7.30;2.72;;;18.00;44.70;;;;;;5087620;28;20404;-50
2021/01/05 08:59:28;;;;;;;4.30;3.60;;;18.00;44.60;;;;;;5088720;28;20565;-48
2021/01/05 09:01:55;;;;;;;4.25;3.85;;;18.00;44.60;;;;;;5088599;28;20048;-46
2021/01/05 09:04:21;;;;;;;4.35;3.67;;;17.90;44.60;;;;;;5088069;28;20134;-53
2021/01/05 09:06:49;;;;;;;3.92;3.40;;;18.00;44.70;;;;;;5088971;28;20044;-52
2021/01/05 09:09:16;;;;;;;2.75;2.55;;;18.00;44.70;;;;;;5088896;28;20126;-50
2021/01/05 09:11:43;;;;;;;9.57;4.05;;;18.00;44.70;;;;;;5088744;28;20036;-51
2021/01/05 09:14:09;;;;;;;3.95;3.53;;;18.00;44.70;;;;;;5086323;28;20543;-46
2021/01/05 09:16:36;;;;;;;4.45;4.05;;;18.00;44.80;;;;;;5087850;28;20059;-47
2021/01/05 09:19:03;;;;;;;3.08;2.67;;;18.00;44.80;;;;;;5092890;28;20067;-48
2021/01/05 09:21:30;;;;;;;4.38;3.30;;;17.90;44.60;;;;;;5088552;28;20419;-49
2021/01/05 09:23:59;;;;;;;3.10;2.60;;;18.00;44.70;;;;;;5088329;28;20076;-48
2021/01/05 09:26:29;;;;;;;2.90;2.58;;;18.00;44.70;;;;;;5086113;28;20055;-47
2021/01/05 09:28:55;;;;;;;4.43;2.95;;;18.00;44.80;;;;;;5088118;28;20032;-46
2021/01/05 09:31:23;;;;;;;4.03;3.55;;;17.90;44.70;;;;;;5088562;28;20048;-49
2021/01/05 09:33:50;;;;;;;8.93;3.30;;;18.00;44.70;;;;;;5088459;28;20044;-48
2021/01/05 09:36:18;;;;;;;4.65;3.28;;;18.00;44.80;;;;;;5087596;28;20067;-48
2021/01/05 09:38:45;;;;;;;3.53;3.13;;;18.00;44.80;;;;;;5087970;28;20046;-48
2021/01/05 09:41:21;;;;;;;5.15;3.13;;;18.00;45.30;;;;;;5088000;28;20109;-49
2021/01/05 09:43:48;;;;;;;5.40;2.78;;;18.00;44.80;;;;;;5085267;28;20062;-48
2021/01/05 09:46:15;;;;;;;4.22;2.70;;;17.90;44.70;;;;;;5101983;28;20531;-48
2021/01/05 09:48:42;;;;;;;3.30;2.90;;;17.90;44.70;;;;;;5087421;28;20052;-51
2021/01/05 09:51:09;;;;;;;3.42;3.08;;;17.90;44.70;;;;;;5087129;28;20543;-46
2021/01/05 09:53:37;;;;;;;3.67;3.38;;;18.00;44.80;;;;;;5087860;28;20048;-52
2021/01/05 09:56:04;;;;;;;2.97;2.78;;;18.00;45.40;;;;;;5087545;28;20067;-49
2021/01/05 09:58:32;;;;;;;4.93;3.35;;;18.00;44.80;;;;;;5087688;28;20048;-48
2021/01/05 10:00:58;;;;;;;4.32;2.95;;;17.90;44.70;;;;;;5086825;28;20432;-49
2021/01/05 10:03:25;;;;;;;4.93;3.47;;;18.00;44.80;;;;;;5087382;28;20172;-48
2021/01/05 10:05:52;;;;;;;5.50;3.67;;;17.90;44.70;;;;;;5087313;28;20400;-53
2021/01/05 10:08:18;;;;;;;4.53;4.20;;;18.00;44.70;;;;;;5087737;28;20059;-53
2021/01/05 10:10:45;;;;;;;6.18;3.75;;;17.90;44.60;;;;;;5087724;28;20048;-52
2021/01/05 10:13:12;;;;;;;3.90;3.53;;;17.90;44.60;;;;;;5089125;28;20450;-53
2021/01/05 10:15:39;;;;;;;1.65;1.50;;;18.00;44.70;;;;;;5087607;28;20515;-50
2021/01/05 10:18:06;;;;;;;2.38;1.55;;;18.00;45.00;;;;;;5086988;28;20055;-47
2021/01/05 10:20:33;;;;;;;3.03;2.83;;;17.90;45.10;;;;;;5087422;28;20040;-53
2021/01/05 10:23:01;;;;;;;3.08;2.78;;;18.00;45.00;;;;;;5087766;28;20094;-48
2021/01/05 10:25:28;;;;;;;3.47;2.92;;;18.00;44.90;;;;;;5087717;28;20048;-49
2021/01/05 10:27:54;;;;;;;5.95;3.65;;;18.00;44.80;;;;;;5088518;28;20052;-51
2021/01/05 10:30:22;;;;;;;4.15;3.30;;;17.90;44.80;;;;;;5090760;28;20123;-48
2021/01/05 10:32:49;;;;;;;5.55;4.00;;;18.00;44.80;;;;;;5090645;28;20086;-52
2021/01/05 10:35:18;;;;;;;11.18;3.80;;;18.00;44.80;;;;;;5091643;28;20127;-49
2021/01/05 10:37:46;;;;;;;4.32;3.72;;;18.00;44.70;;;;;;5091480;28;20055;-47
2021/01/05 10:40:14;;;;;;;3.72;3.47;;;18.00;44.70;;;;;;5092939;28;20055;-47
2021/01/05 10:42:42;;;;;;;5.22;3.97;;;18.00;44.70;;;;;;5091282;28;20066;-49
2021/01/05 10:45:09;;;;;;;3.28;2.97;;;17.90;44.60;;;;;;5091455;28;20119;-46
2021/01/05 10:47:38;;;;;;;5.72;4.53;;;18.00;44.70;;;;;;5090591;28;20415;-47
2021/01/05 10:50:08;;;;;;;3.95;3.55;;;18.00;44.70;;;;;;5091279;28;20043;-47
2021/01/05 10:52:35;;;;;;;4.00;3.70;;;17.90;44.60;;;;;;5090311;28;20097;-47
2021/01/05 10:55:03;;;;;;;4.40;3.03;;;17.90;44.60;;;;;;5092601;28;20043;-48
2021/01/05 10:57:30;;;;;;;7.47;3.30;;;18.00;44.70;;;;;;5090854;28;20538;-47
2021/01/05 10:59:56;;;;;;;3.72;3.25;;;18.00;44.70;;;;;;5091177;28;20072;-46
2021/01/05 11:02:23;;;;;;;3.60;3.30;;;18.00;44.70;;;;;;5091131;28;20059;-52
2021/01/05 11:04:50;;;;;;;7.97;3.75;;;18.00;44.70;;;;;;5090841;28;20123;-48
2021/01/05 11:07:18;;;;;;;3.35;3.08;;;18.00;44.70;;;;;;5092383;28;20543;-47
2021/01/05 11:09:45;;;;;;;2.75;2.50;;;18.00;44.70;;;;;;5091454;28;20109;-49
2021/01/05 11:12:13;;;;;;;5.80;4.35;;;18.00;44.70;;;;;;5090182;28;20055;-54
2021/01/05 11:14:41;;;;;;;3.22;3.03;;;18.00;44.70;;;;;;5090353;28;20483;-51
2021/01/05 11:17:09;;;;;;;4.82;4.32;;;18.00;44.70;;;;;;5090766;28;20495;-47
2021/01/05 11:19:36;;;;;;;6.50;3.78;;;18.00;44.70;;;;;;5090670;28;20028;-49
2021/01/05 11:22:05;;;;;;;4.65;3.50;;;17.90;44.60;;;;;;5091947;28;20048;-53
2021/01/05 11:24:35;;;;;;;4.72;3.50;;;18.00;44.60;;;;;;5090278;28;20588;-51
2021/01/05 11:27:03;;;;;;;4.75;3.53;;;18.00;44.60;;;;;;5090561;28;20040;-49
2021/01/05 11:29:29;;;;;;;5.03;3.60;;;18.00;44.60;;;;;;5089878;28;20079;-48
2021/01/05 11:31:58;;;;;;;4.50;4.10;;;18.00;44.50;;;;;;5090364;28;20055;-49
2021/01/05 11:34:26;;;;;;;5.82;2.85;;;18.00;44.50;;;;;;5090767;28;20110;-52
2021/01/05 11:36:53;;;;;;;5.70;3.67;;;18.00;44.50;;;;;;5102975;28;20044;-48
2021/01/05 11:39:20;;;;;;;5.82;4.63;;;18.00;44.60;;;;;;5088206;28;20037;-50
2021/01/05 11:41:48;;;;;;;3.58;3.28;;;18.00;44.50;;;;;;5090164;28;20129;-48
2021/01/05 11:44:16;;;;;;;3.47;3.17;;;18.00;44.50;;;;;;5090093;28;20127;-46
2021/01/05 11:46:42;;;;;;;5.22;3.90;;;18.00;44.50;;;;;;5090050;28;20178;-48
2021/01/05 11:49:09;;;;;;;5.20;3.88;;;17.90;44.40;;;;;;5091152;28;20086;-50
2021/01/05 11:51:37;;;;;;;3.67;3.08;;;18.00;44.40;;;;;;5089936;28;20048;-51
2021/01/05 11:54:05;;;;;;;5.00;3.38;;;18.00;44.50;;;;;;5089726;28;20044;-48
2021/01/05 11:56:33;;;;;;;3.33;3.03;;;18.00;44.60;;;;;;5089734;28;20066;-50
2021/01/05 11:59:01;;;;;;;5.53;4.13;;;17.90;44.60;;;;;;5089613;28;20054;-47
2021/01/05 12:01:34;;;;;;;4.25;3.42;;;18.00;44.70;;;;;;5090146;28;20507;-49
2021/01/05 12:04:01;;;;;;;3.45;3.15;;;18.00;44.70;;;;;;5089974;28;20094;-50
2021/01/05 12:06:28;;;;;;;3.95;2.97;;;18.00;44.70;;;;;;5089479;28;20044;-50
2021/01/05 12:08:55;;;;;;;3.88;3.50;;;18.00;44.70;;;;;;5089473;28;20055;-52
2021/01/05 12:11:24;;;;;;;2.42;2.22;;;18.00;44.70;;;;;;5089503;28;20043;-52
2021/01/05 12:13:51;;;;;;;3.83;2.22;;;18.00;44.80;;;;;;5089692;28;20048;-54
2021/01/05 12:16:29;;;;;;;3.10;2.80;;;18.00;44.80;;;;;;5091282;28;20044;-50
2021/01/05 12:18:57;;;;;;;4.32;3.13;;;18.00;44.80;;;;;;5089218;28;20047;-47
2021/01/05 12:21:26;;;;;;;3.88;3.55;;;18.00;44.70;;;;;;5088174;28;20042;-48
2021/01/05 12:23:53;;;;;;;4.68;3.72;;;17.90;44.60;;;;;;5089136;28;20453;-46
2021/01/05 12:26:25;;;;;;;5.45;3.88;;;18.00;44.70;;;;;;5089690;28;20066;-49
2021/01/05 12:28:52;;;;;;;4.20;3.80;;;17.90;44.50;;;;;;5083833;28;20690;-48
2021/01/05 12:31:19;;;;;;;4.57;4.20;;;18.00;44.60;;;;;;5090475;28;20408;-54
2021/01/05 12:33:46;;;;;;;5.25;4.03;;;18.00;44.50;;;;;;5089660;28;20167;-50
2021/01/05 12:36:13;;;;;;;4.45;4.05;;;17.90;44.40;;;;;;5089618;28;20130;-50
2021/01/05 12:38:41;;;;;;;5.65;3.95;;;17.90;44.40;;;;;;5089078;28;20063;-51
2021/01/05 12:41:08;;;;;;;5.05;4.35;;;17.90;44.40;;;;;;5089205;28;20075;-48
2021/01/05 12:43:34;;;;;;;5.85;4.22;;;17.90;44.40;;;;;;5088985;28;20047;-49
2021/01/05 12:46:01;;;;;;;3.92;3.55;;;17.90;44.40;;;;;;5090421;28;20048;-49
2021/01/05 12:48:27;;;;;;;4.55;3.55;;;17.90;44.40;;;;;;5088650;28;20064;-48
2021/01/05 12:50:55;;;;;;;4.65;4.22;;;17.90;44.40;;;;;;5088306;28;20424;-50
2021/01/05 12:53:21;;;;;;;5.13;3.10;;;18.00;44.40;;;;;;5088513;28;20527;-50
2021/01/05 12:55:48;;;;;;;4.65;3.95;;;17.90;44.40;;;;;;5089107;28;20123;-50
2021/01/05 12:58:14;;;;;;;3.95;3.60;;;18.00;44.40;;;;;;5090394;28;20059;-50
2021/01/05 13:00:41;;;;;;;4.60;3.28;;;18.00;44.40;;;;;;5088405;28;20072;-49
2021/01/05 13:03:08;;;;;;;4.50;4.10;;;18.00;44.40;;;;;;5088611;28;20150;-45
2021/01/05 13:05:35;;;;;;;4.50;3.75;;;17.90;44.30;;;;;;5088863;28;20054;-48
2021/01/05 13:08:03;;;;;;;3.05;2.85;;;17.90;44.30;;;;;;5088532;28;20059;-51
2021/01/05 13:10:30;;;;;;;5.78;3.92;;;18.00;44.40;;;;;;5088512;28;20071;-47
2021/01/05 13:12:57;;;;;;;9.25;4.78;;;18.00;44.40;;;;;;5089795;28;20048;-46